首页
METAR-TAF:

METAR-TAF

机场 :

下瓦爾托夫斯克, 俄罗斯

纬度: 60-56N, 经度: 076-29E, 海拔: 54米

当前天气观测

该预报发布于19分钟前的12:00 UTC
风速8节,风向东北
温度 20°C
湿度 43%
气压 1008 hPa
能见度10公里或以上
1500米以下无云,无积雨云

METAR: USNN 231200Z 05004MPS CAVOK 20/07 Q1008 R03/0///65 NOSIG RMK QFE752

时间: 17:19 (12:19 UTC)

预报

该预报发布于1小时和31分钟前的10:48 UTC
预报有效从23日的 12点(UTC)到 24日的 12点(UTC)
风速6节,风向北转东北,有时为16节阵风
能见度10公里或以上
1500米以下无云,无积雨云
成为
从 23日的 18点(UTC)到 23日的 19点(UTC)
多云层高于2000英尺

TAF: USNN 231048Z 2312/2412 02003G08MPS CAVOK BECMG 2318/2319 BKN020

超过4000个机场的气象观测和天气预报(METAR&TAF报告)。

可查询的气象台以黄色和红色小点在地图上表示。

将鼠标移到小点上方,可查看气象台名称。

然后点击查看天气观测和预报。

如需切换地图:点击带黑十字的绿色按钮放大地图;点击带横线的绿色按钮缩小地图;或者点击绿色箭头查看邻近地区的地图。


METAR-TAF: